Time,TemperatureF,DewpointF,PressureIn,WindDirection,WindDirectionDegrees,WindSpeedMPH,WindSpeedGustMPH,Humidity,HourlyPrecipIn,Conditions,Clouds,dailyrainin,SoftwareType,DateUTC
2013-07-28 00:01:00,67.1,65.9,29.76,SE,134,0.0,0.0,96,0.00,,,0.00,Wunderground v.1.15,2013-07-28 04:01:00,
2013-07-28 00:02:00,67.1,65.9,29.76,SE,134,0.0,0.0,96,0.00,,,0.00,Wunderground v.1.15,2013-07-28 04:02:00,
2013-07-28 00:03:00,67.1,65.9,29.76,SE,134,0.0,0.0,96,0.00,,,0.00,Wunderground v.1.15,2013-07-28 04:03:00,
2013-07-28 00:05:00,67.1,65.9,29.76,SE,134,0.0,0.0,96,0.00,,,0.00,Wunderground v.1.15,2013-07-28 04:05:00,
2013-07-28 00:11:00,67.1,65.9,29.76,SE,134,0.0,0.0,96,0.00,,,0.00,Wunderground v.1.15,2013-07-28 04:11:00,
2013-07-28 00:16:00,67.0,65.8,29.76,SE,134,0.0,0.0,96,0.00,,,0.00,Wunderground v.1.15,2013-07-28 04:16:00,
2013-07-28 00:21:00,66.9,65.7,29.76,SE,134,0.0,0.0,96,0.00,,,0.00,Wunderground v.1.15,2013-07-28 04:21:00,
2013-07-28 00:26:00,66.8,65.6,29.76,SE,134,0.0,0.0,96,0.00,,,0.00,Wunderground v.1.15,2013-07-28 04:26:00,
2013-07-28 00:31:00,66.6,65.4,29.76,SE,134,0.0,0.0,96,0.00,,,0.00,Wunderground v.1.15,2013-07-28 04:31:00,
2013-07-28 00:36:00,66.3,65.1,29.76,SE,134,0.0,0.0,96,0.00,,,0.00,Wunderground v.1.15,2013-07-28 04:36:00,
2013-07-28 00:41:00,66.1,64.9,29.76,SE,134,0.0,0.0,96,0.00,,,0.00,Wunderground v.1.15,2013-07-28 04:41:00,
2013-07-28 00:46:00,65.9,64.7,29.76,SE,134,0.0,0.0,96,0.00,,,0.00,Wunderground v.1.15,2013-07-28 04:46:00,
2013-07-28 00:51:00,65.8,64.6,29.76,SE,134,0.0,0.0,96,0.00,,,0.00,Wunderground v.1.15,2013-07-28 04:51:00,
2013-07-28 00:56:00,65.8,64.6,29.75,SE,134,0.0,0.0,96,0.00,,,0.00,Wunderground v.1.15,2013-07-28 04:56:00,
2013-07-28 01:02:00,65.7,64.5,29.75,SE,134,0.0,0.0,96,0.00,,,0.00,Wunderground v.1.15,2013-07-28 05:02:00,
2013-07-28 01:07:00,65.6,64.4,29.75,SE,134,0.0,0.0,96,0.00,,,0.00,Wunderground v.1.15,2013-07-28 05:07:00,
2013-07-28 01:12:00,65.7,64.5,29.75,SE,134,0.0,0.0,96,0.00,,,0.00,Wunderground v.1.15,2013-07-28 05:12:00,
2013-07-28 01:17:00,65.7,64.5,29.75,SE,134,0.0,0.0,96,0.00,,,0.00,Wunderground v.1.15,2013-07-28 05:17:00,
2013-07-28 01:22:00,65.5,64.3,29.75,SE,134,0.0,0.0,96,0.00,,,0.00,Wunderground v.1.15,2013-07-28 05:22:00,
2013-07-28 01:27:00,65.3,64.1,29.75,SE,134,0.0,0.0,96,0.00,,,0.00,Wunderground v.1.15,2013-07-28 05:27:00,
2013-07-28 01:32:00,65.3,64.1,29.75,SE,134,0.0,0.0,96,0.00,,,0.00,Wunderground v.1.15,2013-07-28 05:32:00,
2013-07-28 01:37:00,65.3,64.1,29.75,SE,134,0.0,0.0,96,0.00,,,0.00,Wunderground v.1.15,2013-07-28 05:37:00,
2013-07-28 01:42:00,65.4,64.2,29.75,SE,134,0.0,0.0,96,0.00,,,0.00,Wunderground v.1.15,2013-07-28 05:42:00,
2013-07-28 01:48:00,65.5,64.3,29.75,SE,134,0.0,0.0,96,0.00,,,0.00,Wunderground v.1.15,2013-07-28 05:48:00,
2013-07-28 01:53:00,65.5,64.3,29.75,SE,134,0.0,0.0,96,0.00,,,0.00,Wunderground v.1.15,2013-07-28 05:53:00,
2013-07-28 01:58:00,65.6,64.4,29.75,SE,134,0.0,0.0,96,0.00,,,0.00,Wunderground v.1.15,2013-07-28 05:58:00,
2013-07-28 02:03:00,65.6,64.4,29.75,SE,134,0.0,0.0,96,0.00,,,0.00,Wunderground v.1.15,2013-07-28 06:03:00,
2013-07-28 02:08:00,65.5,64.3,29.75,SE,134,0.0,0.0,96,0.00,,,0.00,Wunderground v.1.15,2013-07-28 06:08:00,
2013-07-28 02:13:00,65.4,64.2,29.74,SE,134,0.0,0.0,96,0.00,,,0.00,Wunderground v.1.15,2013-07-28 06:13:00,
2013-07-28 02:18:00,65.5,64.3,29.74,SE,134,0.0,0.0,96,0.00,,,0.00,Wunderground v.1.15,2013-07-28 06:18:00,
2013-07-28 02:23:00,65.5,64.3,29.74,SE,134,0.0,0.0,96,0.00,,,0.00,Wunderground v.1.15,2013-07-28 06:23:00,
2013-07-28 02:28:00,65.5,64.3,29.75,SE,134,0.0,0.0,96,0.00,,,0.00,Wunderground v.1.15,2013-07-28 06:28:00,
2013-07-28 02:33:00,65.5,64.3,29.75,SE,134,0.0,0.0,96,0.00,,,0.00,Wunderground v.1.15,2013-07-28 06:33:00,
2013-07-28 02:38:00,65.4,64.2,29.75,SE,134,0.0,0.0,96,0.00,,,0.00,Wunderground v.1.15,2013-07-28 06:38:00,
2013-07-28 02:43:00,65.3,64.1,29.75,SE,134,0.0,0.0,96,0.00,,,0.00,Wunderground v.1.15,2013-07-28 06:43:00,
2013-07-28 02:48:00,65.2,64.0,29.75,SE,134,0.0,0.0,96,0.00,,,0.00,Wunderground v.1.15,2013-07-28 06:48:00,
2013-07-28 02:54:00,65.2,64.0,29.75,SE,134,0.0,0.0,96,0.00,,,0.00,Wunderground v.1.15,2013-07-28 06:54:00,
2013-07-28 02:59:00,65.2,64.0,29.75,SE,134,0.0,0.0,96,0.00,,,0.00,Wunderground v.1.15,2013-07-28 06:59:00,
2013-07-28 03:04:00,65.2,64.0,29.75,SE,134,0.0,0.0,96,0.00,,,0.00,Wunderground v.1.15,2013-07-28 07:04:00,
2013-07-28 03:09:00,65.1,63.9,29.75,SE,134,0.0,0.0,96,0.00,,,0.00,Wunderground v.1.15,2013-07-28 07:09:00,
2013-07-28 03:15:00,65.1,63.9,29.75,SE,134,0.0,0.0,96,0.00,,,0.00,Wunderground v.1.15,2013-07-28 07:15:00,
2013-07-28 03:20:00,65.1,63.9,29.75,SE,134,0.0,0.0,96,0.00,,,0.00,Wunderground v.1.15,2013-07-28 07:20:00,
2013-07-28 03:25:00,64.9,63.7,29.75,SE,134,0.0,0.0,96,0.00,,,0.00,Wunderground v.1.15,2013-07-28 07:25:00,
2013-07-28 03:30:00,64.9,63.7,29.74,SE,134,0.0,0.0,96,0.00,,,0.00,Wunderground v.1.15,2013-07-28 07:30:00,
2013-07-28 03:36:00,64.7,63.5,29.74,SE,134,0.0,0.0,96,0.00,,,0.00,Wunderground v.1.15,2013-07-28 07:36:00,
2013-07-28 03:41:00,64.7,63.5,29.74,SE,134,0.0,0.0,96,0.00,,,0.00,Wunderground v.1.15,2013-07-28 07:41:00,
2013-07-28 03:46:00,64.5,63.3,29.74,SE,134,0.0,0.0,96,0.00,,,0.00,Wunderground v.1.15,2013-07-28 07:46:00,
2013-07-28 03:51:00,64.6,63.4,29.74,SE,134,0.0,0.0,96,0.00,,,0.00,Wunderground v.1.15,2013-07-28 07:51:00,
2013-07-28 03:56:00,64.6,63.7,29.74,SE,134,0.0,0.0,97,0.00,,,0.00,Wunderground v.1.15,2013-07-28 07:56:00,
2013-07-28 04:02:00,64.6,63.7,29.74,SE,134,0.0,0.0,97,0.00,,,0.00,Wunderground v.1.15,2013-07-28 08:02:00,
2013-07-28 04:07:00,64.4,63.5,29.74,SE,134,0.0,0.0,97,0.00,,,0.00,Wunderground v.1.15,2013-07-28 08:07:00,
2013-07-28 04:13:00,64.2,63.0,29.75,SE,134,0.0,0.0,96,0.00,,,0.00,Wunderground v.1.15,2013-07-28 08:13:00,
2013-07-28 04:18:00,64.1,62.9,29.75,SE,134,0.0,0.0,96,0.00,,,0.00,Wunderground v.1.15,2013-07-28 08:18:00,
2013-07-28 04:24:00,64.2,63.0,29.75,SE,134,0.0,0.0,96,0.00,,,0.00,Wunderground v.1.15,2013-07-28 08:24:00,
2013-07-28 04:29:00,64.1,62.9,29.75,SE,134,0.0,0.0,96,0.00,,,0.00,Wunderground v.1.15,2013-07-28 08:29:00,
2013-07-28 04:34:00,64.1,63.2,29.75,SE,134,0.0,0.0,97,0.00,,,0.00,Wunderground v.1.15,2013-07-28 08:34:00,
2013-07-28 04:39:00,64.0,63.1,29.75,SE,134,0.0,0.0,97,0.00,,,0.00,Wunderground v.1.15,2013-07-28 08:39:00,
2013-07-28 04:44:00,63.9,63.0,29.75,SE,134,0.0,0.0,97,0.00,,,0.00,Wunderground v.1.15,2013-07-28 08:44:00,
2013-07-28 04:49:00,63.9,63.0,29.75,SE,134,0.0,0.0,97,0.00,,,0.00,Wunderground v.1.15,2013-07-28 08:49:00,
2013-07-28 04:54:00,63.9,63.0,29.75,SE,134,0.0,0.0,97,0.00,,,0.00,Wunderground v.1.15,2013-07-28 08:54:00,
2013-07-28 05:00:00,63.7,62.8,29.75,SE,134,0.0,0.0,97,0.00,,,0.00,Wunderground v.1.15,2013-07-28 09:00:00,
2013-07-28 05:05:00,63.7,62.5,29.75,SE,134,0.0,0.0,96,0.00,,,0.00,Wunderground v.1.15,2013-07-28 09:05:00,
2013-07-28 05:10:00,63.7,62.8,29.75,SE,134,0.0,0.0,97,0.00,,,0.00,Wunderground v.1.15,2013-07-28 09:10:00,
2013-07-28 05:16:00,63.8,62.9,29.75,SE,134,0.0,0.0,97,0.00,,,0.00,Wunderground v.1.15,2013-07-28 09:16:00,
2013-07-28 05:21:00,63.7,62.5,29.75,SE,134,0.0,0.0,96,0.00,,,0.00,Wunderground v.1.15,2013-07-28 09:21:00,
2013-07-28 05:26:00,63.7,62.8,29.76,SE,134,0.0,0.0,97,0.00,,,0.00,Wunderground v.1.15,2013-07-28 09:26:00,
2013-07-28 05:31:00,63.7,62.5,29.76,SE,134,0.0,0.0,96,0.00,,,0.00,Wunderground v.1.15,2013-07-28 09:31:00,
2013-07-28 05:37:00,63.8,62.9,29.76,SE,134,0.0,0.0,97,0.00,,,0.00,Wunderground v.1.15,2013-07-28 09:37:00,
2013-07-28 05:42:00,63.8,62.9,29.76,SE,134,0.0,0.0,97,0.00,,,0.00,Wunderground v.1.15,2013-07-28 09:42:00,
2013-07-28 05:47:00,63.8,62.9,29.76,SE,134,0.0,0.0,97,0.00,,,0.00,Wunderground v.1.15,2013-07-28 09:47:00,
2013-07-28 05:52:00,63.8,62.9,29.76,SE,134,0.0,0.0,97,0.00,,,0.00,Wunderground v.1.15,2013-07-28 09:52:00,
2013-07-28 05:57:00,63.7,62.8,29.77,SE,134,0.0,0.0,97,0.00,,,0.00,Wunderground v.1.15,2013-07-28 09:57:00,
2013-07-28 06:02:00,63.7,62.8,29.77,SE,134,0.0,0.0,97,0.00,,,0.00,Wunderground v.1.15,2013-07-28 10:02:00,
2013-07-28 06:07:00,63.6,62.7,29.77,SE,134,0.0,0.0,97,0.00,,,0.00,Wunderground v.1.15,2013-07-28 10:07:00,
2013-07-28 06:12:00,63.7,62.8,29.77,SE,134,0.0,0.0,97,0.00,,,0.00,Wunderground v.1.15,2013-07-28 10:12:00,
2013-07-28 06:18:00,63.8,62.9,29.77,SE,134,0.0,0.0,97,0.00,,,0.00,Wunderground v.1.15,2013-07-28 10:18:00,
2013-07-28 06:23:00,63.6,62.7,29.77,SE,134,0.0,0.0,97,0.00,,,0.00,Wunderground v.1.15,2013-07-28 10:23:00,
2013-07-28 06:28:00,63.5,62.6,29.77,SE,134,0.0,0.0,97,0.00,,,0.00,Wunderground v.1.15,2013-07-28 10:28:00,
2013-07-28 06:33:00,63.5,62.6,29.77,SE,134,0.0,0.0,97,0.00,,,0.00,Wunderground v.1.15,2013-07-28 10:33:00,
2013-07-28 06:38:00,63.4,62.5,29.77,SE,134,0.0,0.0,97,0.00,,,0.00,Wunderground v.1.15,2013-07-28 10:38:00,
2013-07-28 06:43:00,63.4,62.5,29.77,SE,134,0.0,0.0,97,0.00,,,0.00,Wunderground v.1.15,2013-07-28 10:43:00,
2013-07-28 06:48:00,63.3,62.4,29.77,SE,134,0.0,0.0,97,0.00,,,0.00,Wunderground v.1.15,2013-07-28 10:48:00,
2013-07-28 06:53:00,63.2,62.3,29.77,SE,134,0.0,0.0,97,0.00,,,0.00,Wunderground v.1.15,2013-07-28 10:53:00,
2013-07-28 06:58:00,63.1,62.2,29.78,SE,134,1.0,4.0,97,0.00,,,0.00,Wunderground v.1.15,2013-07-28 10:58:00,
2013-07-28 07:03:00,63.0,62.1,29.78,SE,134,1.0,1.0,97,0.00,,,0.00,Wunderground v.1.15,2013-07-28 11:03:00,
2013-07-28 07:08:00,63.0,62.1,29.78,SE,134,0.0,1.0,97,0.00,,,0.00,Wunderground v.1.15,2013-07-28 11:08:00,
2013-07-28 07:13:00,63.1,62.2,29.77,SE,134,0.0,0.0,97,0.00,,,0.00,Wunderground v.1.15,2013-07-28 11:13:00,
2013-07-28 07:18:00,63.1,62.2,29.77,SE,134,0.0,0.0,97,0.00,,,0.00,Wunderground v.1.15,2013-07-28 11:18:00,
2013-07-28 07:23:00,63.1,62.2,29.77,SE,134,0.0,0.0,97,0.00,,,0.00,Wunderground v.1.15,2013-07-28 11:23:00,
2013-07-28 07:29:00,63.2,62.3,29.78,SE,134,0.0,0.0,97,0.00,,,0.00,Wunderground v.1.15,2013-07-28 11:29:00,
2013-07-28 07:34:00,63.2,62.3,29.78,SE,134,0.0,0.0,97,0.00,,,0.00,Wunderground v.1.15,2013-07-28 11:34:00,
2013-07-28 07:40:00,63.1,62.2,29.78,SE,134,0.0,0.0,97,0.00,,,0.00,Wunderground v.1.15,2013-07-28 11:40:00,
2013-07-28 07:45:00,63.2,62.3,29.79,SE,134,0.0,0.0,97,0.00,,,0.00,Wunderground v.1.15,2013-07-28 11:45:00,
2013-07-28 07:50:00,63.3,62.4,29.79,SE,134,0.0,0.0,97,0.00,,,0.00,Wunderground v.1.15,2013-07-28 11:50:00,
2013-07-28 07:56:00,63.2,62.3,29.79,SE,134,1.0,5.0,97,0.00,,,0.00,Wunderground v.1.15,2013-07-28 11:56:00,
2013-07-28 08:01:00,63.1,62.2,29.79,SE,134,2.0,5.0,97,0.00,,,0.00,Wunderground v.1.15,2013-07-28 12:01:00,
2013-07-28 08:06:00,63.1,62.2,29.79,SE,134,2.0,6.0,97,0.00,,,0.00,Wunderground v.1.15,2013-07-28 12:06:00,
2013-07-28 08:11:00,63.3,62.4,29.80,SE,134,1.0,1.0,97,0.00,,,0.00,Wunderground v.1.15,2013-07-28 12:11:00,
2013-07-28 08:16:00,63.4,62.5,29.80,SE,134,1.0,6.0,97,0.00,,,0.00,Wunderground v.1.15,2013-07-28 12:16:00,
2013-07-28 08:21:00,63.5,62.6,29.80,SE,130,2.0,8.0,97,0.00,,,0.00,Wunderground v.1.15,2013-07-28 12:21:00,
2013-07-28 08:26:00,63.4,62.5,29.81,NW,313,5.0,12.0,97,0.00,,,0.00,Wunderground v.1.15,2013-07-28 12:26:00,
2013-07-28 08:32:00,63.4,62.5,29.81,NW,311,7.0,8.0,97,0.00,,,0.00,Wunderground v.1.15,2013-07-28 12:32:00,
2013-07-28 08:37:00,63.5,62.6,29.81,NW,312,4.0,8.0,97,0.00,,,0.00,Wunderground v.1.15,2013-07-28 12:37:00,
2013-07-28 08:43:00,63.6,62.7,29.81,NW,312,1.0,2.0,97,0.00,,,0.00,Wunderground v.1.15,2013-07-28 12:43:00,
2013-07-28 08:48:00,63.7,62.8,29.81,NW,312,1.0,5.0,97,0.00,,,0.00,Wunderground v.1.15,2013-07-28 12:48:00,
2013-07-28 08:53:00,63.8,62.9,29.81,NW,312,1.0,1.0,97,0.00,,,0.00,Wunderground v.1.15,2013-07-28 12:53:00,
2013-07-28 08:58:00,64.0,63.1,29.80,NW,312,1.0,6.0,97,0.00,,,0.00,Wunderground v.1.15,2013-07-28 12:58:00,
2013-07-28 09:03:00,64.1,63.2,29.80,NW,312,1.0,1.0,97,0.00,,,0.00,Wunderground v.1.15,2013-07-28 13:03:00,
2013-07-28 09:08:00,64.4,63.5,29.80,NW,312,0.0,1.0,97,0.00,,,0.00,Wunderground v.1.15,2013-07-28 13:08:00,
2013-07-28 09:13:00,64.3,63.4,29.81,NW,312,1.0,6.0,97,0.00,,,0.00,Wunderground v.1.15,2013-07-28 13:13:00,
2013-07-28 09:18:00,64.9,64.0,29.81,NW,312,1.0,6.0,97,0.00,,,0.00,Wunderground v.1.15,2013-07-28 13:18:00,
2013-07-28 09:23:00,65.5,64.6,29.81,NW,312,0.0,1.0,97,0.00,,,0.00,Wunderground v.1.15,2013-07-28 13:23:00,
2013-07-28 09:28:00,65.7,64.8,29.81,NW,312,0.0,1.0,97,0.00,,,0.01,Wunderground v.1.15,2013-07-28 13:28:00,
2013-07-28 09:33:00,66.0,65.1,29.81,NW,312,0.0,0.0,97,0.00,,,0.01,Wunderground v.1.15,2013-07-28 13:33:00,
2013-07-28 09:38:00,66.3,65.4,29.81,NW,312,0.0,0.0,97,0.00,,,0.01,Wunderground v.1.15,2013-07-28 13:38:00,
2013-07-28 09:44:00,66.7,65.8,29.81,NW,323,2.0,8.0,97,0.00,,,0.01,Wunderground v.1.15,2013-07-28 13:44:00,
2013-07-28 09:49:00,66.7,65.8,29.81,NW,321,5.0,8.0,97,0.00,,,0.01,Wunderground v.1.15,2013-07-28 13:49:00,
2013-07-28 09:54:00,66.8,65.6,29.81,NW,317,4.0,5.0,96,0.00,,,0.01,Wunderground v.1.15,2013-07-28 13:54:00,
2013-07-28 09:59:00,67.0,65.8,29.81,NW,317,2.0,5.0,96,0.00,,,0.01,Wunderground v.1.15,2013-07-28 13:59:00,
2013-07-28 10:04:00,67.4,66.2,29.81,NW,317,0.0,1.0,96,0.00,,,0.01,Wunderground v.1.15,2013-07-28 14:04:00,
2013-07-28 10:10:00,68.1,66.6,29.81,NW,319,0.0,0.0,95,0.00,,,0.01,Wunderground v.1.15,2013-07-28 14:10:00,
2013-07-28 10:15:00,68.9,67.1,29.81,NW,319,0.0,0.0,94,0.00,,,0.01,Wunderground v.1.15,2013-07-28 14:15:00,
2013-07-28 10:20:00,69.5,67.7,29.81,NW,319,0.0,0.0,94,0.00,,,0.01,Wunderground v.1.15,2013-07-28 14:20:00,
2013-07-28 10:26:00,70.1,67.0,29.82,NW,319,2.0,7.0,90,0.00,,,0.01,Wunderground v.1.15,2013-07-28 14:26:00,
2013-07-28 10:31:00,71.0,67.6,29.82,NW,316,5.0,5.0,89,0.00,,,0.01,Wunderground v.1.15,2013-07-28 14:31:00,
2013-07-28 10:37:00,71.9,68.2,29.82,NW,314,5.0,8.0,88,0.00,,,0.01,Wunderground v.1.15,2013-07-28 14:37:00,
2013-07-28 10:42:00,72.4,68.6,29.82,NW,316,4.0,6.0,88,0.00,,,0.01,Wunderground v.1.15,2013-07-28 14:42:00,
2013-07-28 10:47:00,73.0,69.2,29.82,NW,316,1.0,6.0,88,0.00,,,0.01,Wunderground v.1.15,2013-07-28 14:47:00,
2013-07-28 10:52:00,73.6,69.5,29.82,NW,316,0.0,1.0,87,0.00,,,0.01,Wunderground v.1.15,2013-07-28 14:52:00,
2013-07-28 10:57:00,73.6,69.2,29.82,WNW,296,0.0,1.0,86,0.00,,,0.01,Wunderground v.1.15,2013-07-28 14:57:00,
2013-07-28 11:02:00,73.3,69.2,29.82,WNW,288,0.0,0.0,87,0.00,,,0.01,Wunderground v.1.15,2013-07-28 15:02:00,
2013-07-28 11:08:00,72.7,67.6,29.82,WNW,288,0.0,0.0,84,0.00,,,0.01,Wunderground v.1.15,2013-07-28 15:08:00,
2013-07-28 11:13:00,72.6,67.5,29.82,WNW,288,0.0,0.0,84,0.00,,,0.01,Wunderground v.1.15,2013-07-28 15:13:00,
2013-07-28 11:19:00,72.9,67.8,29.82,WNW,288,0.0,0.0,84,0.00,,,0.01,Wunderground v.1.15,2013-07-28 15:19:00,
2013-07-28 11:24:00,73.4,67.9,29.82,WNW,290,1.0,6.0,83,0.00,,,0.01,Wunderground v.1.15,2013-07-28 15:24:00,
2013-07-28 11:29:00,74.3,67.4,29.82,WNW,290,2.0,6.0,79,0.00,,,0.01,Wunderground v.1.15,2013-07-28 15:29:00,
2013-07-28 11:35:00,74.9,67.2,29.82,NW,306,4.0,10.0,77,0.00,,,0.01,Wunderground v.1.15,2013-07-28 15:35:00,
2013-07-28 11:41:00,75.2,67.1,29.82,NW,306,5.0,5.0,76,0.00,,,0.01,Wunderground v.1.15,2013-07-28 15:41:00,
2013-07-28 11:46:00,75.5,66.6,29.82,NW,306,3.0,5.0,74,0.00,,,0.01,Wunderground v.1.15,2013-07-28 15:46:00,
2013-07-28 11:51:00,76.0,66.7,29.82,NW,306,2.0,2.0,73,0.00,,,0.01,Wunderground v.1.15,2013-07-28 15:51:00,
2013-07-28 11:56:00,76.5,67.6,29.82,NW,306,2.0,3.0,74,0.00,,,0.01,Wunderground v.1.15,2013-07-28 15:56:00,
2013-07-28 12:02:00,77.4,69.2,29.82,NW,306,0.0,1.0,76,0.00,,,0.01,Wunderground v.1.15,2013-07-28 16:02:00,
2013-07-28 12:07:00,77.7,69.5,29.82,NW,306,0.0,1.0,76,0.00,,,0.01,Wunderground v.1.15,2013-07-28 16:07:00,
2013-07-28 12:13:00,76.1,68.0,29.82,WNW,300,1.0,1.0,76,0.00,,,0.01,Wunderground v.1.15,2013-07-28 16:13:00,
2013-07-28 12:18:00,75.2,67.9,29.82,WNW,296,1.0,1.0,78,0.00,,,0.01,Wunderground v.1.15,2013-07-28 16:18:00,
2013-07-28 12:23:00,74.9,67.2,29.82,South,181,1.0,3.0,77,0.00,,,0.01,Wunderground v.1.15,2013-07-28 16:23:00,
2013-07-28 12:28:00,75.2,67.1,29.82,South,181,1.0,3.0,76,0.00,,,0.01,Wunderground v.1.15,2013-07-28 16:28:00,
2013-07-28 12:33:00,75.3,67.2,29.82,SE,135,1.0,6.0,76,0.00,,,0.01,Wunderground v.1.15,2013-07-28 16:33:00,
2013-07-28 12:34:00,75.3,68.0,29.82,SE,135,1.0,6.0,78,0.00,,,0.01,Wunderground v.1.15,2013-07-28 16:34:00,
2013-07-28 12:39:00,76.0,69.0,29.82,SE,135,1.0,6.0,79,0.00,,,0.01,Wunderground v.1.15,2013-07-28 16:39:00,
2013-07-28 12:44:00,76.0,68.3,29.82,SE,135,0.0,0.0,77,0.00,,,0.01,Wunderground v.1.15,2013-07-28 16:44:00,
2013-07-28 12:49:00,76.1,69.1,29.82,SE,136,0.0,0.0,79,0.00,,,0.01,Wunderground v.1.15,2013-07-28 16:49:00,
2013-07-28 12:54:00,76.6,70.3,29.82,SE,136,0.0,2.0,81,0.00,,,0.01,Wunderground v.1.15,2013-07-28 16:54:00,
2013-07-28 12:59:00,77.4,68.1,29.81,SSE,148,1.0,4.0,73,0.00,,,0.01,Wunderground v.1.15,2013-07-28 16:59:00,
2013-07-28 13:04:00,78.2,69.2,29.81,SSE,168,1.0,4.0,74,0.00,,,0.01,Wunderground v.1.15,2013-07-28 17:04:00,
2013-07-28 13:10:00,78.2,65.5,29.81,SE,138,3.0,3.0,65,0.00,,,0.01,Wunderground v.1.15,2013-07-28 17:10:00,
2013-07-28 13:15:00,78.6,65.4,29.81,SE,138,2.0,3.0,64,0.00,,,0.01,Wunderground v.1.15,2013-07-28 17:15:00,
2013-07-28 13:20:00,79.5,65.3,29.81,SSW,198,0.0,0.0,62,0.00,,,0.01,Wunderground v.1.15,2013-07-28 17:20:00,
2013-07-28 13:25:00,79.4,64.8,29.81,SSE,158,1.0,10.0,61,0.00,,,0.01,Wunderground v.1.15,2013-07-28 17:25:00,
2013-07-28 13:30:00,79.9,67.1,29.81,SSE,158,1.0,1.0,65,0.00,,,0.01,Wunderground v.1.15,2013-07-28 17:30:00,
2013-07-28 13:36:00,80.1,64.0,29.81,SSE,153,1.0,7.0,58,0.00,,,0.01,Wunderground v.1.15,2013-07-28 17:36:00,
2013-07-28 13:42:00,80.3,62.1,29.80,SSE,148,3.0,7.0,54,0.00,,,0.01,Wunderground v.1.15,2013-07-28 17:42:00,
2013-07-28 13:47:00,79.8,63.2,29.80,SSE,149,2.0,7.0,57,0.00,,,0.01,Wunderground v.1.15,2013-07-28 17:47:00,
2013-07-28 13:52:00,79.9,65.2,29.80,SSE,149,0.0,5.0,61,0.00,,,0.01,Wunderground v.1.15,2013-07-28 17:52:00,
2013-07-28 13:57:00,79.8,63.7,29.80,SE,138,3.0,9.0,58,0.00,,,0.01,Wunderground v.1.15,2013-07-28 17:57:00,
2013-07-28 14:02:00,79.8,68.3,29.80,South,173,4.0,4.0,68,0.00,,,0.01,Wunderground v.1.15,2013-07-28 18:02:00,
2013-07-28 14:08:00,80.8,62.6,29.80,WSW,257,4.0,15.0,54,0.00,,,0.01,Wunderground v.1.15,2013-07-28 18:08:00,
2013-07-28 14:13:00,81.0,67.2,29.80,SE,140,4.0,4.0,63,0.00,,,0.01,Wunderground v.1.15,2013-07-28 18:13:00,
2013-07-28 14:18:00,80.4,63.3,29.80,SE,138,4.0,16.0,56,0.00,,,0.01,Wunderground v.1.15,2013-07-28 18:18:00,
2013-07-28 14:23:00,80.2,66.0,29.80,SE,136,3.0,4.0,62,0.00,,,0.01,Wunderground v.1.15,2013-07-28 18:23:00,
2013-07-28 14:28:00,80.3,64.2,29.80,SSE,150,1.0,6.0,58,0.00,,,0.01,Wunderground v.1.15,2013-07-28 18:28:00,
2013-07-28 14:33:00,79.6,63.0,29.80,SSE,153,3.0,6.0,57,0.00,,,0.01,Wunderground v.1.15,2013-07-28 18:33:00,
2013-07-28 14:38:00,79.2,65.5,29.80,SSE,153,2.0,6.0,63,0.00,,,0.01,Wunderground v.1.15,2013-07-28 18:38:00,
2013-07-28 14:44:00,79.5,66.3,29.80,SSE,154,0.0,4.0,64,0.00,,,0.01,Wunderground v.1.15,2013-07-28 18:44:00,
2013-07-28 14:49:00,80.0,63.9,29.80,South,170,1.0,6.0,58,0.00,,,0.01,Wunderground v.1.15,2013-07-28 18:49:00,
2013-07-28 14:54:00,80.2,64.6,29.80,SSE,167,1.0,5.0,59,0.00,,,0.01,Wunderground v.1.15,2013-07-28 18:54:00,
2013-07-28 14:59:00,79.7,64.6,29.80,SE,145,2.0,9.0,60,0.00,,,0.01,Wunderground v.1.15,2013-07-28 18:59:00,
2013-07-28 15:04:00,79.8,63.2,29.80,SE,139,3.0,6.0,57,0.00,,,0.01,Wunderground v.1.15,2013-07-28 19:04:00,
2013-07-28 15:10:00,80.3,63.7,29.80,SE,143,2.0,9.0,57,0.00,,,0.01,Wunderground v.1.15,2013-07-28 19:10:00,
2013-07-28 15:15:00,80.0,62.9,29.78,SSE,155,3.0,12.0,56,0.00,,,0.01,Wunderground v.1.15,2013-07-28 19:15:00,
2013-07-28 15:20:00,80.4,64.3,29.78,SSE,155,2.0,2.0,58,0.00,,,0.01,Wunderground v.1.15,2013-07-28 19:20:00,
2013-07-28 15:25:00,80.9,63.2,29.78,SSE,155,1.0,4.0,55,0.00,,,0.01,Wunderground v.1.15,2013-07-28 19:25:00,
2013-07-28 15:31:00,80.9,61.6,29.78,NNW,346,2.0,10.0,52,0.00,,,0.01,Wunderground v.1.15,2013-07-28 19:31:00,
2013-07-28 15:36:00,80.8,63.6,29.78,NW,320,3.0,14.0,56,0.00,,,0.01,Wunderground v.1.15,2013-07-28 19:36:00,
2013-07-28 15:41:00,81.1,66.4,29.78,NW,320,2.0,2.0,61,0.00,,,0.01,Wunderground v.1.15,2013-07-28 19:41:00,
2013-07-28 15:46:00,81.5,63.8,29.78,WSW,250,1.0,5.0,55,0.00,,,0.01,Wunderground v.1.15,2013-07-28 19:46:00,
2013-07-28 15:51:00,81.4,63.2,29.78,NW,310,3.0,10.0,54,0.00,,,0.01,Wunderground v.1.15,2013-07-28 19:51:00,
2013-07-28 15:56:00,81.4,67.1,29.78,NW,315,2.0,10.0,62,0.00,,,0.01,Wunderground v.1.15,2013-07-28 19:56:00,
2013-07-28 16:02:00,81.4,63.2,29.78,SSE,151,1.0,10.0,54,0.00,,,0.01,Wunderground v.1.15,2013-07-28 20:02:00,
2013-07-28 16:07:00,81.2,65.5,29.78,SE,134,2.0,10.0,59,0.00,,,0.01,Wunderground v.1.15,2013-07-28 20:07:00,
2013-07-28 16:13:00,81.2,67.4,29.78,SE,133,1.0,2.0,63,0.00,,,0.01,Wunderground v.1.15,2013-07-28 20:13:00,
2013-07-28 16:18:00,81.2,65.5,29.78,SE,133,1.0,2.0,59,0.00,,,0.01,Wunderground v.1.15,2013-07-28 20:18:00,
2013-07-28 16:23:00,80.8,62.6,29.78,SE,142,1.0,8.0,54,0.00,,,0.01,Wunderground v.1.15,2013-07-28 20:23:00,
2013-07-28 16:29:00,80.8,61.5,29.78,SSE,161,2.0,8.0,52,0.00,,,0.01,Wunderground v.1.15,2013-07-28 20:29:00,
2013-07-28 16:34:00,80.7,61.4,29.78,South,169,2.0,11.0,52,0.00,,,0.01,Wunderground v.1.15,2013-07-28 20:34:00,
2013-07-28 16:39:00,81.0,60.6,29.78,South,186,1.0,11.0,50,0.00,,,0.01,Wunderground v.1.15,2013-07-28 20:39:00,
2013-07-28 16:44:00,81.4,61.5,29.78,South,186,0.0,1.0,51,0.00,,,0.01,Wunderground v.1.15,2013-07-28 20:44:00,
2013-07-28 16:49:00,81.5,63.3,29.78,WSW,238,0.0,1.0,54,0.00,,,0.01,Wunderground v.1.15,2013-07-28 20:49:00,
2013-07-28 16:55:00,81.4,62.6,29.78,SW,236,0.0,0.0,53,0.00,,,0.01,Wunderground v.1.15,2013-07-28 20:55:00,
2013-07-28 17:00:00,81.1,61.3,29.78,SW,227,0.0,0.0,51,0.00,,,0.01,Wunderground v.1.15,2013-07-28 21:00:00,
2013-07-28 17:05:00,80.9,63.7,29.78,SW,227,0.0,0.0,56,0.00,,,0.01,Wunderground v.1.15,2013-07-28 21:05:00,
2013-07-28 17:10:00,80.7,65.0,29.78,SW,227,0.0,0.0,59,0.00,,,0.01,Wunderground v.1.15,2013-07-28 21:10:00,
2013-07-28 17:16:00,79.7,62.6,29.78,South,169,1.0,7.0,56,0.00,,,0.01,Wunderground v.1.15,2013-07-28 21:16:00,
2013-07-28 17:21:00,79.2,63.1,29.78,SSE,159,2.0,2.0,58,0.00,,,0.01,Wunderground v.1.15,2013-07-28 21:21:00,
2013-07-28 17:27:00,79.1,62.1,29.78,SSE,155,0.0,2.0,56,0.00,,,0.01,Wunderground v.1.15,2013-07-28 21:27:00,
2013-07-28 17:32:00,78.9,61.9,29.78,WNW,283,2.0,2.0,56,0.00,,,0.01,Wunderground v.1.15,2013-07-28 21:32:00,
2013-07-28 17:37:00,78.6,60.6,29.78,ESE,108,3.0,6.0,54,0.00,,,0.01,Wunderground v.1.15,2013-07-28 21:37:00,
2013-07-28 17:43:00,78.4,61.4,29.78,ESE,108,1.0,2.0,56,0.00,,,0.01,Wunderground v.1.15,2013-07-28 21:43:00,
2013-07-28 17:48:00,78.2,61.2,29.78,SE,130,0.0,4.0,56,0.00,,,0.01,Wunderground v.1.15,2013-07-28 21:48:00,
2013-07-28 17:53:00,78.0,61.5,29.78,SE,144,1.0,6.0,57,0.00,,,0.01,Wunderground v.1.15,2013-07-28 21:53:00,
2013-07-28 17:58:00,77.8,59.8,29.79,SSE,148,2.0,19.0,54,0.00,,,0.01,Wunderground v.1.15,2013-07-28 21:58:00,
2013-07-28 18:03:00,77.6,61.2,29.79,SSE,151,2.0,2.0,57,0.00,,,0.01,Wunderground v.1.15,2013-07-28 22:03:00,
2013-07-28 18:08:00,77.5,63.0,29.79,SSE,151,0.0,2.0,61,0.00,,,0.01,Wunderground v.1.15,2013-07-28 22:08:00,
2013-07-28 18:13:00,77.2,61.8,29.79,SSE,154,0.0,1.0,59,0.00,,,0.01,Wunderground v.1.15,2013-07-28 22:13:00,
2013-07-28 18:18:00,76.8,59.9,29.79,SW,233,1.0,1.0,56,0.00,,,0.01,Wunderground v.1.15,2013-07-28 22:18:00,
2013-07-28 18:23:00,76.6,59.7,29.79,SW,219,1.0,1.0,56,0.00,,,0.01,Wunderground v.1.15,2013-07-28 22:23:00,
2013-07-28 18:28:00,76.6,61.7,29.79,SW,219,0.0,1.0,60,0.00,,,0.01,Wunderground v.1.15,2013-07-28 22:28:00,
2013-07-28 18:33:00,76.1,60.7,29.79,SSW,209,1.0,6.0,59,0.00,,,0.01,Wunderground v.1.15,2013-07-28 22:33:00,
2013-07-28 18:39:00,75.4,60.1,29.79,SSE,167,2.0,9.0,59,0.00,,,0.01,Wunderground v.1.15,2013-07-28 22:39:00,
2013-07-28 18:45:00,75.1,59.8,29.79,SE,142,2.0,8.0,59,0.00,,,0.01,Wunderground v.1.15,2013-07-28 22:45:00,
2013-07-28 18:50:00,74.9,61.0,29.79,SE,142,1.0,1.0,62,0.00,,,0.01,Wunderground v.1.15,2013-07-28 22:50:00,
2013-07-28 18:55:00,74.7,61.7,29.79,SSE,148,0.0,1.0,64,0.00,,,0.01,Wunderground v.1.15,2013-07-28 22:55:00,
2013-07-28 19:01:00,74.5,60.6,29.79,SSE,150,2.0,7.0,62,0.00,,,0.01,Wunderground v.1.15,2013-07-28 23:01:00,
2013-07-28 19:06:00,74.3,58.6,29.79,SE,146,3.0,9.0,58,0.00,,,0.01,Wunderground v.1.15,2013-07-28 23:06:00,
2013-07-28 19:11:00,74.1,59.8,29.80,SSE,161,4.0,8.0,61,0.00,,,0.01,Wunderground v.1.15,2013-07-28 23:11:00,
2013-07-28 19:16:00,73.7,59.4,29.80,SSE,161,3.0,8.0,61,0.00,,,0.01,Wunderground v.1.15,2013-07-28 23:16:00,
2013-07-28 19:22:00,73.5,60.1,29.80,SSE,156,1.0,4.0,63,0.00,,,0.01,Wunderground v.1.15,2013-07-28 23:22:00,
2013-07-28 19:27:00,73.4,60.5,29.81,SSE,156,1.0,4.0,64,0.00,,,0.01,Wunderground v.1.15,2013-07-28 23:27:00,
2013-07-28 19:33:00,73.2,59.8,29.81,SSE,156,0.0,1.0,63,0.00,,,0.01,Wunderground v.1.15,2013-07-28 23:33:00,
2013-07-28 19:38:00,73.1,58.8,29.81,SSE,156,0.0,1.0,61,0.00,,,0.01,Wunderground v.1.15,2013-07-28 23:38:00,
2013-07-28 19:43:00,73.0,60.5,29.81,SSE,156,0.0,0.0,65,0.00,,,0.01,Wunderground v.1.15,2013-07-28 23:43:00,
2013-07-28 19:49:00,72.7,60.3,29.81,SSE,156,0.0,0.0,65,0.00,,,0.01,Wunderground v.1.15,2013-07-28 23:49:00,
2013-07-28 19:54:00,72.6,60.2,29.81,SSE,156,0.0,0.0,65,0.00,,,0.01,Wunderground v.1.15,2013-07-28 23:54:00,
2013-07-28 19:59:00,72.5,60.1,29.81,SSE,156,0.0,0.0,65,0.00,,,0.01,Wunderground v.1.15,2013-07-28 23:59:00,
2013-07-28 20:05:00,72.4,60.0,29.81,SSE,156,0.0,1.0,65,0.00,,,0.01,Wunderground v.1.15,2013-07-29 00:05:00,
2013-07-28 20:10:00,72.2,59.8,29.81,SSE,156,0.0,0.0,65,0.00,,,0.01,Wunderground v.1.15,2013-07-29 00:10:00,
2013-07-28 20:16:00,71.9,60.8,29.81,SSE,156,0.0,0.0,68,0.00,,,0.01,Wunderground v.1.15,2013-07-29 00:16:00,
2013-07-28 20:21:00,71.6,62.1,29.81,SSE,156,0.0,0.0,72,0.00,,,0.01,Wunderground v.1.15,2013-07-29 00:21:00,
2013-07-28 20:26:00,71.3,61.8,29.81,SSE,156,0.0,0.0,72,0.00,,,0.01,Wunderground v.1.15,2013-07-29 00:26:00,
2013-07-28 20:31:00,71.1,62.0,29.81,SSE,156,0.0,0.0,73,0.00,,,0.01,Wunderground v.1.15,2013-07-29 00:31:00,
2013-07-28 20:36:00,70.9,62.2,29.81,SSE,156,0.0,0.0,74,0.00,,,0.01,Wunderground v.1.15,2013-07-29 00:36:00,
2013-07-28 20:41:00,70.7,62.4,29.81,SSE,156,0.0,0.0,75,0.00,,,0.01,Wunderground v.1.15,2013-07-29 00:41:00,
2013-07-28 20:47:00,70.3,62.4,29.81,SSE,156,0.0,0.0,76,0.00,,,0.01,Wunderground v.1.15,2013-07-29 00:47:00,
2013-07-28 20:52:00,70.1,62.6,29.81,SSE,156,0.0,0.0,77,0.00,,,0.01,Wunderground v.1.15,2013-07-29 00:52:00,
2013-07-28 20:58:00,69.5,60.5,29.81,SSE,156,0.0,0.0,73,0.00,,,0.01,Wunderground v.1.15,2013-07-29 00:58:00,
2013-07-28 21:03:00,69.2,60.6,29.81,SSE,156,0.0,0.0,74,0.00,,,0.01,Wunderground v.1.15,2013-07-29 01:03:00,
2013-07-28 21:08:00,69.0,61.5,29.81,SSE,156,0.0,0.0,77,0.00,,,0.01,Wunderground v.1.15,2013-07-29 01:08:00,
2013-07-28 21:13:00,68.4,61.6,29.82,SSE,156,0.0,0.0,79,0.00,,,0.01,Wunderground v.1.15,2013-07-29 01:13:00,
2013-07-28 21:18:00,67.7,60.2,29.82,SSE,156,0.0,0.0,77,0.00,,,0.01,Wunderground v.1.15,2013-07-29 01:18:00,
2013-07-28 21:23:00,67.7,61.3,29.82,SSE,156,0.0,0.0,80,0.00,,,0.01,Wunderground v.1.15,2013-07-29 01:23:00,
2013-07-28 21:30:00,67.5,60.8,29.83,SSE,156,0.0,0.0,79,0.00,,,0.01,Wunderground v.1.15,2013-07-29 01:30:00,
2013-07-28 21:35:00,67.3,59.8,29.83,SSE,156,0.0,0.0,77,0.00,,,0.01,Wunderground v.1.15,2013-07-29 01:35:00,
2013-07-28 21:40:00,67.2,60.8,29.83,SSE,156,0.0,0.0,80,0.00,,,0.01,Wunderground v.1.15,2013-07-29 01:40:00,
2013-07-28 21:47:00,67.1,61.4,29.84,SSE,156,0.0,0.0,82,0.00,,,0.01,Wunderground v.1.15,2013-07-29 01:47:00,
2013-07-28 21:53:00,67.0,61.3,29.84,SSE,156,0.0,0.0,82,0.00,,,0.01,Wunderground v.1.15,2013-07-29 01:53:00,
2013-07-28 21:59:00,66.9,61.6,29.84,SSE,156,0.0,0.0,83,0.00,,,0.01,Wunderground v.1.15,2013-07-29 01:59:00,
2013-07-28 22:04:00,66.7,62.0,29.84,SSE,156,0.0,0.0,85,0.00,,,0.01,Wunderground v.1.15,2013-07-29 02:04:00,
2013-07-28 22:09:00,66.5,62.2,29.84,SSE,156,0.0,0.0,86,0.00,,,0.01,Wunderground v.1.15,2013-07-29 02:09:00,
2013-07-28 22:15:00,66.2,61.9,29.85,SSE,156,0.0,4.0,86,0.00,,,0.01,Wunderground v.1.15,2013-07-29 02:15:00,
2013-07-28 22:20:00,65.9,61.6,29.85,SSE,156,1.0,1.0,86,0.00,,,0.01,Wunderground v.1.15,2013-07-29 02:20:00,
2013-07-28 22:25:00,65.8,61.8,29.85,SSE,156,1.0,1.0,87,0.00,,,0.01,Wunderground v.1.15,2013-07-29 02:25:00,
2013-07-28 22:31:00,65.7,61.7,29.85,SSE,156,0.0,0.0,87,0.00,,,0.01,Wunderground v.1.15,2013-07-29 02:31:00,
2013-07-28 22:37:00,65.5,61.9,29.85,SSE,156,0.0,0.0,88,0.00,,,0.01,Wunderground v.1.15,2013-07-29 02:37:00,
2013-07-28 22:42:00,65.3,61.7,29.86,SSE,156,0.0,0.0,88,0.00,,,0.01,Wunderground v.1.15,2013-07-29 02:42:00,
2013-07-28 22:47:00,65.1,61.8,29.86,SSE,156,0.0,0.0,89,0.00,,,0.01,Wunderground v.1.15,2013-07-29 02:47:00,
2013-07-28 22:52:00,65.0,61.4,29.86,SSE,156,0.0,0.0,88,0.00,,,0.01,Wunderground v.1.15,2013-07-29 02:52:00,
2013-07-28 22:57:00,64.9,61.3,29.86,SSE,156,0.0,0.0,88,0.00,,,0.01,Wunderground v.1.15,2013-07-29 02:57:00,
2013-07-28 23:03:00,64.6,61.3,29.86,SSE,156,0.0,1.0,89,0.00,,,0.01,Wunderground v.1.15,2013-07-29 03:03:00,
2013-07-28 23:08:00,64.3,61.3,29.86,SSE,156,0.0,1.0,90,0.00,,,0.01,Wunderground v.1.15,2013-07-29 03:08:00,
2013-07-28 23:14:00,64.1,61.4,29.86,SSE,156,0.0,0.0,91,0.00,,,0.01,Wunderground v.1.15,2013-07-29 03:14:00,
2013-07-28 23:19:00,63.8,61.1,29.86,SSE,156,0.0,0.0,91,0.00,,,0.01,Wunderground v.1.15,2013-07-29 03:19:00,
2013-07-28 23:24:00,63.6,61.2,29.86,SSE,156,0.0,0.0,92,0.00,,,0.01,Wunderground v.1.15,2013-07-29 03:24:00,
2013-07-28 23:29:00,63.6,60.9,29.86,SSE,156,0.0,0.0,91,0.00,,,0.01,Wunderground v.1.15,2013-07-29 03:29:00,
2013-07-28 23:35:00,63.6,60.6,29.86,SSE,156,0.0,0.0,90,0.00,,,0.01,Wunderground v.1.15,2013-07-29 03:35:00,
2013-07-28 23:40:00,63.8,60.5,29.86,SSE,156,0.0,0.0,89,0.00,,,0.01,Wunderground v.1.15,2013-07-29 03:40:00,
2013-07-28 23:45:00,64.0,61.3,29.86,SSE,156,0.0,0.0,91,0.00,,,0.01,Wunderground v.1.15,2013-07-29 03:45:00,
2013-07-28 23:52:00,63.8,61.4,29.86,SSE,156,0.0,0.0,92,0.00,,,0.01,Wunderground v.1.15,2013-07-29 03:52:00,
2013-07-28 23:57:00,63.5,61.1,29.86,SSE,156,0.0,0.0,92,0.00,,,0.01,Wunderground v.1.15,2013-07-29 03:57:00,